Time;durP1;ratioP1;P1;durP2;ratioP2;P2;SDS_P1;SDS_P2;PMS_P1;PMS_P2;Temp;Humidity;BMP_temperature;BMP_pressure;BME280_temperature;BME280_humidity;BME280_pressure;Samples;Min_cycle;Max_cycle;Signal;HPM_P1;HPM_P2
2024/02/12 06:01:11;;;;;;;;;;;;;;;1.84;100.00;99113.42;1886260;75;20423;-68
2024/02/12 06:03:37;;;;;;;;;;;;;;;1.82;100.00;99112.64;1842620;76;20151;-71
2024/02/12 06:06:04;;;;;;;;;;;;;;;1.86;100.00;99100.53;1835990;77;20173;-71
2024/02/12 06:08:33;;;;;;;;;;;;;;;1.91;100.00;99102.05;1840642;76;20647;-69
2024/02/12 06:11:00;;;;;;;;;;;;;;;1.97;100.00;99098.43;1839482;77;20162;-78
2024/02/12 06:13:28;;;;;;;;;;;;;;;2.04;100.00;99099.02;1837878;77;20125;-75
2024/02/12 06:15:54;;;;;;;;;;;;;;;2.10;100.00;99106.05;1839407;77;20129;-69
2024/02/12 06:18:20;;;;;;;;;;;;;;;2.18;100.00;99109.63;1856183;77;20883;-76
2024/02/12 06:20:48;;;;;;;;;;;;;;;2.23;100.00;99103.88;1831995;78;20365;-69
2024/02/12 06:43:40;;;;;;;;;;;;;;;2.60;100.00;99113.16;1875842;75;20121;-73
2024/02/12 06:46:07;;;;;;;;;;;;;;;2.65;100.00;99115.55;1909371;73;20157;-74
2024/02/12 06:48:33;;;;;;;;;;;;;;;2.69;100.00;99104.25;1907641;74;20136;-71
2024/02/12 06:51:08;;;;;;;;;;;;;;;2.70;100.00;99101.23;1907459;75;20153;-73
2024/02/12 06:53:28;;;;;;;;;;;;;;;2.72;100.00;99107.99;1925973;74;20140;-72
2024/02/12 06:55:54;;;;;;;;;;;;;;;2.75;100.00;99107.88;1943809;74;20145;-71
2024/02/12 06:58:21;;;;;;;;;;;;;;;2.80;100.00;99116.22;1928345;74;20122;-72
2024/02/12 07:00:52;;;;;;;;;;;;;;;2.87;100.00;99109.10;1944595;74;20364;-72
2024/02/12 07:03:17;;;;;;;;;;;;;;;2.88;100.00;99105.64;1924617;74;20088;-69
2024/02/12 07:05:43;;;;;;;;;;;;;;;2.93;100.00;99098.58;1912733;74;20139;-70
2024/02/12 07:08:11;;;;;;;;;;;;;;;2.94;100.00;99098.97;1914376;74;20135;-77
2024/02/12 07:10:37;;;;;;;;;;;;;;;2.97;100.00;99084.70;1914090;74;20150;-71
2024/02/12 07:13:04;;;;;;;;;;;;;;;2.98;100.00;99090.23;1912169;74;20129;-74
2024/02/12 07:15:31;;;;;;;;;;;;;;;3.00;100.00;99083.30;1910729;74;20127;-76
2024/02/12 07:17:58;;;;;;;;;;;;;;;3.00;100.00;99080.73;1916058;74;20081;-75
2024/02/12 07:20:25;;;;;;;;;;;;;;;2.96;100.00;99074.87;1909353;74;20272;-78
2024/02/12 07:22:51;;;;;;;;;;;;;;;2.94;100.00;99067.66;1903328;74;20175;-73
2024/02/12 07:25:17;;;;;;;;;;;;;;;2.98;100.00;99065.80;1898585;74;20144;-73
2024/02/12 07:27:43;;;;;;;;;;;;;;;3.06;100.00;99070.19;1910477;74;21015;-75
2024/02/12 07:30:10;;;;;;;;;;;;;;;3.14;100.00;99074.58;1907555;74;20132;-68
2024/02/12 07:32:37;;;;;;;;;;;;;;;3.18;100.00;99074.00;1908674;74;20099;-69
2024/02/12 07:35:08;;;;;;;;;;;;;;;3.22;100.00;99076.36;1904326;74;20105;-69
2024/02/12 07:37:38;;;;;;;;;;;;;;;3.27;100.00;99068.00;1902769;74;20096;-69
2024/02/12 07:40:10;;;;;;;;;;;;;;;3.27;100.00;99071.86;1908780;74;20156;-71
2024/02/12 07:42:35;;;;;;;;;;;;;;;3.27;100.00;99069.28;1907118;74;20139;-74
2024/02/12 07:45:02;;;;;;;;;;;;;;;3.27;100.00;99076.17;1901250;74;20562;-70
2024/02/12 07:47:29;;;;;;;;;;;;;;;3.32;100.00;99084.08;1902562;74;20096;-68
2024/02/12 11:52:59;;;;;;;;;;;;;;;6.24;100.00;99035.59;1913098;74;20098;-76
2024/02/12 11:55:25;;;;;;;;;;;;;;;6.26;100.00;99038.93;1935020;74;20102;-69
2024/02/12 11:57:51;;;;;;;;;;;;;;;6.26;100.00;99040.22;1925904;74;20355;-66
2024/02/12 12:00:21;;;;;;;;;;;;;;;6.25;100.00;99045.02;1899141;76;20164;-68
2024/02/12 12:02:51;;;;;;;;;;;;;;;6.25;100.00;99037.72;1865008;76;20130;-71
2024/02/12 12:05:25;;;;;;;;;;;;;;;6.27;100.00;99041.06;1900011;74;20132;-75
2024/02/12 12:07:52;;;;;;;;;;;;;;;6.29;100.00;99044.39;1875787;74;20308;-67
2024/02/12 12:10:29;;;;;;;;;;;;;;;6.31;100.00;99037.39;1898673;76;20140;-70
2024/02/12 12:12:59;;;;;;;;;;;;;;;6.32;100.00;99046.36;1898938;76;20097;-75
2024/02/12 12:15:28;;;;;;;;;;;;;;;6.30;100.00;99034.43;1898566;74;20267;-73
2024/02/12 12:17:54;;;;;;;;;;;;;;;6.30;100.00;99043.48;1914740;74;20114;-70
2024/02/12 12:20:20;;;;;;;;;;;;;;;6.30;100.00;99042.19;1898643;76;20178;-67
2024/02/12 12:22:47;;;;;;;;;;;;;;;6.30;100.00;99047.36;1899333;75;20595;-72
2024/02/12 12:25:13;;;;;;;;;;;;;;;6.30;100.00;99051.23;1898545;76;20079;-73
2024/02/12 12:27:39;;;;;;;;;;;;;;;6.30;100.00;99035.72;1898187;75;20130;-69
2024/02/12 12:30:16;;;;;;;;;;;;;;;6.28;100.00;99046.61;1899144;76;20916;-78
2024/02/12 12:32:44;;;;;;;;;;;;;;;6.27;100.00;99043.64;1900006;74;20085;-76
2024/02/12 12:35:10;;;;;;;;;;;;;;;6.25;100.00;99040.30;1908591;74;20117;-70
2024/02/12 12:37:39;;;;;;;;;;;;;;;6.20;100.00;99031.97;1906506;74;20152;-72
2024/02/12 12:40:18;;;;;;;;;;;;;;;6.15;100.00;99033.95;1908868;74;20385;-76
2024/02/12 12:42:40;;;;;;;;;;;;;;;6.13;100.00;99034.50;1907463;74;20175;-70
2024/02/12 12:45:10;;;;;;;;;;;;;;;6.12;100.00;99040.58;1908640;74;20089;-71
2024/02/12 12:47:36;;;;;;;;;;;;;;;6.14;100.00;99041.34;1904174;74;20099;-75
2024/02/12 12:50:06;;;;;;;;;;;;;;;6.17;100.00;99047.18;1903818;74;20094;-82
2024/02/12 14:56:57;;;;;;;;;;;;;;;5.09;100.00;99068.72;1847124;77;20158;-72
2024/02/12 14:59:24;;;;;;;;;;;;;;;5.08;100.00;99065.77;1843916;77;20143;-74
